sensor_id;sensor_type;location;lat;lon;timestamp;temperature;humidity
1590;DHT22;788;48.720;9.158;2022-10-16T00:01:16;16.30;99.90
1590;DHT22;788;48.720;9.158;2022-10-16T00:03:44;16.30;99.90
1590;DHT22;788;48.720;9.158;2022-10-16T00:06:12;16.30;99.90
1590;DHT22;788;48.720;9.158;2022-10-16T00:08:39;16.30;99.90
1590;DHT22;788;48.720;9.158;2022-10-16T00:11:09;16.30;99.90
1590;DHT22;788;48.720;9.158;2022-10-16T00:13:40;16.30;99.90
1590;DHT22;788;48.720;9.158;2022-10-16T00:16:09;16.30;99.90
1590;DHT22;788;48.720;9.158;2022-10-16T00:18:36;16.30;99.90
1590;DHT22;788;48.720;9.158;2022-10-16T00:21:05;16.30;99.90
1590;DHT22;788;48.720;9.158;2022-10-16T00:23:33;16.20;99.90
1590;DHT22;788;48.720;9.158;2022-10-16T00:26:03;16.20;99.90
1590;DHT22;788;48.720;9.158;2022-10-16T00:28:30;16.20;99.90
1590;DHT22;788;48.720;9.158;2022-10-16T00:30:59;16.10;99.90
1590;DHT22;788;48.720;9.158;2022-10-16T00:33:28;16.10;99.90
1590;DHT22;788;48.720;9.158;2022-10-16T00:35:57;16.00;99.90
1590;DHT22;788;48.720;9.158;2022-10-16T00:38:24;15.90;99.90
1590;DHT22;788;48.720;9.158;2022-10-16T00:40:51;15.80;99.90
1590;DHT22;788;48.720;9.158;2022-10-16T00:43:34;15.80;99.90
1590;DHT22;788;48.720;9.158;2022-10-16T00:46:08;15.70;99.90
1590;DHT22;788;48.720;9.158;2022-10-16T00:48:37;15.70;99.90
1590;DHT22;788;48.720;9.158;2022-10-16T00:51:04;15.70;99.90
1590;DHT22;788;48.720;9.158;2022-10-16T00:53:32;15.60;99.90
1590;DHT22;788;48.720;9.158;2022-10-16T00:56:00;15.60;99.90
1590;DHT22;788;48.720;9.158;2022-10-16T00:58:27;15.50;99.90
1590;DHT22;788;48.720;9.158;2022-10-16T01:00:54;15.50;99.90
1590;DHT22;788;48.720;9.158;2022-10-16T01:03:28;15.50;99.90
1590;DHT22;788;48.720;9.158;2022-10-16T01:06:06;15.50;99.90
1590;DHT22;788;48.720;9.158;2022-10-16T01:08:43;15.60;99.90
1590;DHT22;788;48.720;9.158;2022-10-16T01:11:17;15.60;99.90
1590;DHT22;788;48.720;9.158;2022-10-16T01:13:50;15.60;99.90
1590;DHT22;788;48.720;9.158;2022-10-16T01:16:26;15.60;99.90
1590;DHT22;788;48.720;9.158;2022-10-16T01:19:01;15.70;99.90
1590;DHT22;788;48.720;9.158;2022-10-16T01:21:32;15.70;99.90
1590;DHT22;788;48.720;9.158;2022-10-16T01:24:06;15.70;99.90
1590;DHT22;788;48.720;9.158;2022-10-16T01:27:00;15.70;99.90
1590;DHT22;788;48.720;9.158;2022-10-16T01:29:30;15.70;99.90
1590;DHT22;788;48.720;9.158;2022-10-16T01:32:01;15.60;99.90
1590;DHT22;788;48.720;9.158;2022-10-16T01:34:32;15.60;99.90
1590;DHT22;788;48.720;9.158;2022-10-16T01:37:05;15.50;99.90
1590;DHT22;788;48.720;9.158;2022-10-16T01:39:35;15.50;99.90
1590;DHT22;788;48.720;9.158;2022-10-16T01:42:09;15.50;99.90
1590;DHT22;788;48.720;9.158;2022-10-16T01:44:39;15.40;99.90
1590;DHT22;788;48.720;9.158;2022-10-16T01:47:07;15.40;99.90
1590;DHT22;788;48.720;9.158;2022-10-16T01:49:37;15.40;99.90
1590;DHT22;788;48.720;9.158;2022-10-16T01:52:08;15.40;99.90
1590;DHT22;788;48.720;9.158;2022-10-16T01:54:37;15.40;99.90
1590;DHT22;788;48.720;9.158;2022-10-16T01:57:08;15.40;99.90
1590;DHT22;788;48.720;9.158;2022-10-16T01:59:39;15.50;99.90
1590;DHT22;788;48.720;9.158;2022-10-16T02:02:08;15.50;99.90
1590;DHT22;788;48.720;9.158;2022-10-16T02:04:39;15.50;99.90
1590;DHT22;788;48.720;9.158;2022-10-16T02:07:10;15.60;99.90
1590;DHT22;788;48.720;9.158;2022-10-16T02:09:39;15.60;99.90
1590;DHT22;788;48.720;9.158;2022-10-16T02:12:11;15.50;99.90
1590;DHT22;788;48.720;9.158;2022-10-16T02:14:40;15.60;99.90
1590;DHT22;788;48.720;9.158;2022-10-16T02:17:10;15.60;99.90
1590;DHT22;788;48.720;9.158;2022-10-16T02:19:37;15.60;99.90
1590;DHT22;788;48.720;9.158;2022-10-16T02:22:07;15.70;99.90
1590;DHT22;788;48.720;9.158;2022-10-16T02:24:39;15.70;99.90
1590;DHT22;788;48.720;9.158;2022-10-16T02:27:14;15.70;99.90
1590;DHT22;788;48.720;9.158;2022-10-16T02:29:47;15.70;99.90
1590;DHT22;788;48.720;9.158;2022-10-16T02:32:20;15.70;99.90
1590;DHT22;788;48.720;9.158;2022-10-16T02:34:48;15.70;99.90
1590;DHT22;788;48.720;9.158;2022-10-16T02:37:16;15.70;99.90
1590;DHT22;788;48.720;9.158;2022-10-16T02:39:44;15.70;99.90
1590;DHT22;788;48.720;9.158;2022-10-16T02:42:12;15.70;99.90
1590;DHT22;788;48.720;9.158;2022-10-16T02:44:39;15.70;99.90
1590;DHT22;788;48.720;9.158;2022-10-16T02:47:06;15.70;99.90
1590;DHT22;788;48.720;9.158;2022-10-16T02:49:33;15.80;99.90
1590;DHT22;788;48.720;9.158;2022-10-16T02:52:00;15.80;99.90
1590;DHT22;788;48.720;9.158;2022-10-16T02:54:27;15.70;99.90
1590;DHT22;788;48.720;9.158;2022-10-16T02:56:54;15.70;99.90
1590;DHT22;788;48.720;9.158;2022-10-16T02:59:22;15.70;99.90
1590;DHT22;788;48.720;9.158;2022-10-16T03:01:48;15.70;99.90
1590;DHT22;788;48.720;9.158;2022-10-16T03:04:16;15.70;99.90
1590;DHT22;788;48.720;9.158;2022-10-16T03:06:42;15.70;99.90
1590;DHT22;788;48.720;9.158;2022-10-16T03:09:09;15.60;99.90
1590;DHT22;788;48.720;9.158;2022-10-16T03:11:36;15.60;99.90
1590;DHT22;788;48.720;9.158;2022-10-16T03:14:03;15.60;99.90
1590;DHT22;788;48.720;9.158;2022-10-16T03:16:31;15.60;99.90
1590;DHT22;788;48.720;9.158;2022-10-16T03:18:58;15.70;99.90
1590;DHT22;788;48.720;9.158;2022-10-16T03:21:25;15.70;99.90
1590;DHT22;788;48.720;9.158;2022-10-16T03:23:51;15.70;99.90
1590;DHT22;788;48.720;9.158;2022-10-16T03:26:18;15.70;99.90
1590;DHT22;788;48.720;9.158;2022-10-16T03:28:45;15.70;99.90
1590;DHT22;788;48.720;9.158;2022-10-16T03:31:12;15.70;99.90
1590;DHT22;788;48.720;9.158;2022-10-16T03:33:40;15.70;99.90
1590;DHT22;788;48.720;9.158;2022-10-16T03:36:07;15.70;99.90
1590;DHT22;788;48.720;9.158;2022-10-16T03:38:34;15.70;99.90
1590;DHT22;788;48.720;9.158;2022-10-16T03:41:00;15.70;99.90
1590;DHT22;788;48.720;9.158;2022-10-16T03:43:27;15.70;99.90
1590;DHT22;788;48.720;9.158;2022-10-16T03:45:54;15.70;99.90
1590;DHT22;788;48.720;9.158;2022-10-16T03:48:21;15.70;99.90
1590;DHT22;788;48.720;9.158;2022-10-16T03:50:49;15.70;99.90
1590;DHT22;788;48.720;9.158;2022-10-16T03:53:17;15.70;99.90
1590;DHT22;788;48.720;9.158;2022-10-16T03:55:44;15.60;99.90
1590;DHT22;788;48.720;9.158;2022-10-16T03:58:12;15.70;99.90
1590;DHT22;788;48.720;9.158;2022-10-16T04:00:40;15.60;99.90
1590;DHT22;788;48.720;9.158;2022-10-16T04:03:08;15.60;99.90
1590;DHT22;788;48.720;9.158;2022-10-16T04:05:35;15.60;99.90
1590;DHT22;788;48.720;9.158;2022-10-16T04:08:03;15.60;99.90
1590;DHT22;788;48.720;9.158;2022-10-16T04:10:31;15.60;99.90
1590;DHT22;788;48.720;9.158;2022-10-16T04:12:57;15.60;99.90
1590;DHT22;788;48.720;9.158;2022-10-16T04:15:25;15.60;99.90
1590;DHT22;788;48.720;9.158;2022-10-16T04:17:52;15.60;99.90
1590;DHT22;788;48.720;9.158;2022-10-16T04:20:19;15.60;99.90
1590;DHT22;788;48.720;9.158;2022-10-16T04:22:46;15.60;99.90
1590;DHT22;788;48.720;9.158;2022-10-16T04:25:14;15.60;99.90
1590;DHT22;788;48.720;9.158;2022-10-16T04:27:41;15.60;99.90
1590;DHT22;788;48.720;9.158;2022-10-16T04:30:08;15.60;99.90
1590;DHT22;788;48.720;9.158;2022-10-16T04:32:35;15.60;99.90
1590;DHT22;788;48.720;9.158;2022-10-16T04:35:02;15.60;99.90
1590;DHT22;788;48.720;9.158;2022-10-16T04:37:29;15.50;99.90
1590;DHT22;788;48.720;9.158;2022-10-16T04:39:56;15.50;99.90
1590;DHT22;788;48.720;9.158;2022-10-16T04:42:24;15.50;99.90
1590;DHT22;788;48.720;9.158;2022-10-16T04:44:53;15.50;99.90
1590;DHT22;788;48.720;9.158;2022-10-16T04:47:20;15.50;99.90
1590;DHT22;788;48.720;9.158;2022-10-16T04:49:47;15.50;99.90
1590;DHT22;788;48.720;9.158;2022-10-16T04:52:14;15.60;99.90
1590;DHT22;788;48.720;9.158;2022-10-16T04:54:40;15.60;99.90
1590;DHT22;788;48.720;9.158;2022-10-16T04:57:07;15.60;99.90
1590;DHT22;788;48.720;9.158;2022-10-16T04:59:35;15.60;99.90
1590;DHT22;788;48.720;9.158;2022-10-16T05:02:02;15.60;99.90
1590;DHT22;788;48.720;9.158;2022-10-16T05:04:29;15.60;99.90
1590;DHT22;788;48.720;9.158;2022-10-16T05:06:56;15.60;99.90
1590;DHT22;788;48.720;9.158;2022-10-16T05:09:23;15.60;99.90
1590;DHT22;788;48.720;9.158;2022-10-16T05:11:49;15.60;99.90
1590;DHT22;788;48.720;9.158;2022-10-16T05:14:16;15.60;99.90
1590;DHT22;788;48.720;9.158;2022-10-16T05:16:45;15.60;99.90
1590;DHT22;788;48.720;9.158;2022-10-16T05:19:13;15.60;99.90
1590;DHT22;788;48.720;9.158;2022-10-16T05:21:40;15.50;99.90
1590;DHT22;788;48.720;9.158;2022-10-16T05:24:07;15.50;99.90
1590;DHT22;788;48.720;9.158;2022-10-16T05:26:34;15.50;99.90
1590;DHT22;788;48.720;9.158;2022-10-16T05:29:01;15.50;99.90
1590;DHT22;788;48.720;9.158;2022-10-16T05:31:28;15.50;99.90
1590;DHT22;788;48.720;9.158;2022-10-16T05:33:59;15.50;99.90
1590;DHT22;788;48.720;9.158;2022-10-16T05:36:26;15.50;99.90
1590;DHT22;788;48.720;9.158;2022-10-16T05:38:53;15.40;99.90
1590;DHT22;788;48.720;9.158;2022-10-16T05:41:20;15.40;99.90
1590;DHT22;788;48.720;9.158;2022-10-16T05:43:49;15.40;99.90
1590;DHT22;788;48.720;9.158;2022-10-16T05:46:16;15.40;99.90
1590;DHT22;788;48.720;9.158;2022-10-16T05:48:43;15.30;99.90
1590;DHT22;788;48.720;9.158;2022-10-16T05:51:13;15.30;99.90
1590;DHT22;788;48.720;9.158;2022-10-16T05:53:40;15.30;99.90
1590;DHT22;788;48.720;9.158;2022-10-16T05:56:10;15.30;99.90
1590;DHT22;788;48.720;9.158;2022-10-16T05:58:38;15.30;99.90
1590;DHT22;788;48.720;9.158;2022-10-16T06:01:06;15.30;99.90
1590;DHT22;788;48.720;9.158;2022-10-16T06:03:34;15.40;99.90
1590;DHT22;788;48.720;9.158;2022-10-16T06:06:07;15.40;99.90
1590;DHT22;788;48.720;9.158;2022-10-16T06:08:36;15.40;99.90
1590;DHT22;788;48.720;9.158;2022-10-16T06:11:04;15.50;99.90
1590;DHT22;788;48.720;9.158;2022-10-16T06:13:31;15.50;99.90
1590;DHT22;788;48.720;9.158;2022-10-16T06:15:59;15.50;99.90
1590;DHT22;788;48.720;9.158;2022-10-16T06:18:27;15.50;99.90
1590;DHT22;788;48.720;9.158;2022-10-16T06:20:54;15.50;99.90
1590;DHT22;788;48.720;9.158;2022-10-16T06:23:22;15.50;99.90
1590;DHT22;788;48.720;9.158;2022-10-16T06:25:50;15.60;99.90
1590;DHT22;788;48.720;9.158;2022-10-16T06:28:17;15.60;99.90
1590;DHT22;788;48.720;9.158;2022-10-16T06:30:43;15.60;99.90
1590;DHT22;788;48.720;9.158;2022-10-16T06:33:11;15.60;99.90
1590;DHT22;788;48.720;9.158;2022-10-16T06:35:37;15.60;99.90
1590;DHT22;788;48.720;9.158;2022-10-16T06:38:04;15.60;99.90
1590;DHT22;788;48.720;9.158;2022-10-16T06:40:31;15.70;99.90
1590;DHT22;788;48.720;9.158;2022-10-16T06:42:59;15.80;99.90
1590;DHT22;788;48.720;9.158;2022-10-16T06:45:26;15.80;99.90
1590;DHT22;788;48.720;9.158;2022-10-16T06:47:53;15.90;99.90
1590;DHT22;788;48.720;9.158;2022-10-16T06:50:20;15.90;99.90
1590;DHT22;788;48.720;9.158;2022-10-16T06:52:47;16.00;99.90
1590;DHT22;788;48.720;9.158;2022-10-16T06:55:14;16.10;99.90
1590;DHT22;788;48.720;9.158;2022-10-16T06:57:42;16.10;99.90
1590;DHT22;788;48.720;9.158;2022-10-16T07:00:11;16.20;99.90
1590;DHT22;788;48.720;9.158;2022-10-16T07:02:38;16.30;99.90
1590;DHT22;788;48.720;9.158;2022-10-16T07:05:05;16.30;99.90
1590;DHT22;788;48.720;9.158;2022-10-16T07:07:32;16.40;99.90
1590;DHT22;788;48.720;9.158;2022-10-16T07:10:02;16.50;99.90
1590;DHT22;788;48.720;9.158;2022-10-16T07:12:29;16.60;99.90
1590;DHT22;788;48.720;9.158;2022-10-16T07:14:56;16.70;99.90
1590;DHT22;788;48.720;9.158;2022-10-16T07:17:24;16.80;99.90
1590;DHT22;788;48.720;9.158;2022-10-16T07:19:51;16.90;99.90
1590;DHT22;788;48.720;9.158;2022-10-16T07:22:19;16.90;99.90
1590;DHT22;788;48.720;9.158;2022-10-16T07:24:46;17.00;99.90
1590;DHT22;788;48.720;9.158;2022-10-16T07:27:13;17.10;99.90
1590;DHT22;788;48.720;9.158;2022-10-16T07:29:42;17.20;99.90
1590;DHT22;788;48.720;9.158;2022-10-16T07:32:08;17.20;99.90
1590;DHT22;788;48.720;9.158;2022-10-16T07:34:37;17.30;99.90
1590;DHT22;788;48.720;9.158;2022-10-16T07:37:26;17.30;99.90
1590;DHT22;788;48.720;9.158;2022-10-16T07:39:54;17.40;99.90
1590;DHT22;788;48.720;9.158;2022-10-16T07:42:21;17.30;99.90
1590;DHT22;788;48.720;9.158;2022-10-16T07:44:48;17.40;99.90
1590;DHT22;788;48.720;9.158;2022-10-16T07:47:15;17.40;99.90
1590;DHT22;788;48.720;9.158;2022-10-16T07:49:43;17.40;99.90
1590;DHT22;788;48.720;9.158;2022-10-16T07:52:09;17.50;99.90
1590;DHT22;788;48.720;9.158;2022-10-16T07:54:36;17.50;99.90
1590;DHT22;788;48.720;9.158;2022-10-16T07:57:03;17.50;99.90
1590;DHT22;788;48.720;9.158;2022-10-16T07:59:30;17.60;99.90
1590;DHT22;788;48.720;9.158;2022-10-16T08:01:57;17.60;99.90
1590;DHT22;788;48.720;9.158;2022-10-16T08:04:24;17.70;99.90
1590;DHT22;788;48.720;9.158;2022-10-16T08:06:52;17.60;99.90
1590;DHT22;788;48.720;9.158;2022-10-16T08:09:19;17.60;99.90
1590;DHT22;788;48.720;9.158;2022-10-16T08:11:46;17.70;99.90
1590;DHT22;788;48.720;9.158;2022-10-16T08:14:13;17.70;99.90
1590;DHT22;788;48.720;9.158;2022-10-16T08:16:40;17.70;99.90
1590;DHT22;788;48.720;9.158;2022-10-16T08:19:06;17.80;99.90
1590;DHT22;788;48.720;9.158;2022-10-16T08:21:33;17.90;99.90
1590;DHT22;788;48.720;9.158;2022-10-16T08:24:01;18.10;99.90
1590;DHT22;788;48.720;9.158;2022-10-16T08:26:28;18.20;99.90
1590;DHT22;788;48.720;9.158;2022-10-16T08:28:55;18.40;99.90
1590;DHT22;788;48.720;9.158;2022-10-16T08:31:23;18.50;99.90
1590;DHT22;788;48.720;9.158;2022-10-16T08:33:49;18.60;99.90
1590;DHT22;788;48.720;9.158;2022-10-16T08:36:17;18.80;99.90
1590;DHT22;788;48.720;9.158;2022-10-16T08:38:47;19.00;99.90
1590;DHT22;788;48.720;9.158;2022-10-16T08:45:05;19.20;99.90
1590;DHT22;788;48.720;9.158;2022-10-16T08:47:48;19.30;99.90
1590;DHT22;788;48.720;9.158;2022-10-16T08:50:21;19.40;99.90
1590;DHT22;788;48.720;9.158;2022-10-16T08:52:49;19.50;99.90
1590;DHT22;788;48.720;9.158;2022-10-16T08:55:30;19.60;99.90
1590;DHT22;788;48.720;9.158;2022-10-16T08:57:59;19.60;99.90
1590;DHT22;788;48.720;9.158;2022-10-16T09:00:27;19.70;99.90
1590;DHT22;788;48.720;9.158;2022-10-16T09:03:03;19.70;99.90
1590;DHT22;788;48.720;9.158;2022-10-16T09:05:57;19.80;99.90
1590;DHT22;788;48.720;9.158;2022-10-16T09:08:33;19.90;99.90
1590;DHT22;788;48.720;9.158;2022-10-16T09:11:09;20.10;99.90
1590;DHT22;788;48.720;9.158;2022-10-16T09:13:46;20.30;99.90
1590;DHT22;788;48.720;9.158;2022-10-16T09:16:19;20.40;99.90
1590;DHT22;788;48.720;9.158;2022-10-16T09:18:56;20.50;99.90
1590;DHT22;788;48.720;9.158;2022-10-16T09:21:27;20.60;99.90
1590;DHT22;788;48.720;9.158;2022-10-16T09:23:58;20.60;99.90
1590;DHT22;788;48.720;9.158;2022-10-16T09:26:25;20.50;99.90
1590;DHT22;788;48.720;9.158;2022-10-16T09:28:53;20.50;99.90
1590;DHT22;788;48.720;9.158;2022-10-16T09:31:22;20.40;99.90
1590;DHT22;788;48.720;9.158;2022-10-16T09:33:52;20.50;99.90
1590;DHT22;788;48.720;9.158;2022-10-16T09:36:21;20.50;99.90
1590;DHT22;788;48.720;9.158;2022-10-16T09:38:49;20.50;99.90
1590;DHT22;788;48.720;9.158;2022-10-16T09:41:21;20.50;99.90
1590;DHT22;788;48.720;9.158;2022-10-16T09:43:52;20.50;99.90
1590;DHT22;788;48.720;9.158;2022-10-16T09:46:25;20.70;99.90
1590;DHT22;788;48.720;9.158;2022-10-16T09:48:56;20.90;99.90
1590;DHT22;788;48.720;9.158;2022-10-16T09:51:26;21.00;99.90
1590;DHT22;788;48.720;9.158;2022-10-16T09:53:59;21.10;99.90
1590;DHT22;788;48.720;9.158;2022-10-16T09:56:27;21.20;99.90
1590;DHT22;788;48.720;9.158;2022-10-16T09:58:56;21.30;99.90
1590;DHT22;788;48.720;9.158;2022-10-16T10:01:30;21.50;99.90
1590;DHT22;788;48.720;9.158;2022-10-16T10:03:58;21.80;99.90
1590;DHT22;788;48.720;9.158;2022-10-16T10:06:30;22.00;99.90
1590;DHT22;788;48.720;9.158;2022-10-16T10:09:02;22.20;99.90
1590;DHT22;788;48.720;9.158;2022-10-16T10:11:48;22.30;99.90
1590;DHT22;788;48.720;9.158;2022-10-16T10:14:27;22.60;99.90
1590;DHT22;788;48.720;9.158;2022-10-16T10:17:13;22.70;99.90
1590;DHT22;788;48.720;9.158;2022-10-16T10:19:42;22.70;99.90
1590;DHT22;788;48.720;9.158;2022-10-16T10:22:27;22.80;99.90
1590;DHT22;788;48.720;9.158;2022-10-16T10:30:35;23.10;99.90
1590;DHT22;788;48.720;9.158;2022-10-16T10:33:28;23.20;99.90
1590;DHT22;788;48.720;9.158;2022-10-16T10:36:05;23.30;99.90
1590;DHT22;788;48.720;9.158;2022-10-16T10:38:40;23.40;99.80
1590;DHT22;788;48.720;9.158;2022-10-16T10:44:07;23.50;98.20
1590;DHT22;788;48.720;9.158;2022-10-16T10:46:42;23.50;97.90
1590;DHT22;788;48.720;9.158;2022-10-16T10:49:25;23.50;97.90
1590;DHT22;788;48.720;9.158;2022-10-16T10:52:00;23.60;97.20
1590;DHT22;788;48.720;9.158;2022-10-16T10:54:32;23.80;98.00
1590;DHT22;788;48.720;9.158;2022-10-16T10:57:03;24.40;97.40
1590;DHT22;788;48.720;9.158;2022-10-16T10:59:52;24.80;95.70
1590;DHT22;788;48.720;9.158;2022-10-16T11:02:24;25.50;94.00
1590;DHT22;788;48.720;9.158;2022-10-16T11:07:52;26.60;92.60
1590;DHT22;788;48.720;9.158;2022-10-16T11:10:22;27.00;91.50
1590;DHT22;788;48.720;9.158;2022-10-16T11:12:52;27.50;90.00
1590;DHT22;788;48.720;9.158;2022-10-16T11:15:25;28.00;87.40
1590;DHT22;788;48.720;9.158;2022-10-16T11:17:57;28.20;87.70
1590;DHT22;788;48.720;9.158;2022-10-16T11:20:29;28.10;84.20
1590;DHT22;788;48.720;9.158;2022-10-16T11:23:00;28.10;84.70
1590;DHT22;788;48.720;9.158;2022-10-16T11:25:31;27.80;85.70
1590;DHT22;788;48.720;9.158;2022-10-16T11:28:02;27.80;88.20
1590;DHT22;788;48.720;9.158;2022-10-16T11:30:33;27.80;84.30
1590;DHT22;788;48.720;9.158;2022-10-16T11:33:13;27.90;85.80
1590;DHT22;788;48.720;9.158;2022-10-16T11:35:51;27.90;85.10
1590;DHT22;788;48.720;9.158;2022-10-16T11:38:25;27.70;84.70
1590;DHT22;788;48.720;9.158;2022-10-16T11:40:56;27.60;84.90
1590;DHT22;788;48.720;9.158;2022-10-16T11:43:28;27.70;86.00
1590;DHT22;788;48.720;9.158;2022-10-16T11:46:00;27.60;85.70
1590;DHT22;788;48.720;9.158;2022-10-16T11:48:33;27.50;86.20
1590;DHT22;788;48.720;9.158;2022-10-16T11:51:10;27.80;86.50
1590;DHT22;788;48.720;9.158;2022-10-16T11:53:46;28.50;85.90
1590;DHT22;788;48.720;9.158;2022-10-16T11:56:17;29.40;80.80
1590;DHT22;788;48.720;9.158;2022-10-16T11:58:52;29.50;79.10
1590;DHT22;788;48.720;9.158;2022-10-16T12:01:27;29.70;77.10
1590;DHT22;788;48.720;9.158;2022-10-16T12:04:04;30.00;78.10
1590;DHT22;788;48.720;9.158;2022-10-16T12:06:37;30.60;74.10
1590;DHT22;788;48.720;9.158;2022-10-16T12:09:15;31.10;73.70
1590;DHT22;788;48.720;9.158;2022-10-16T12:11:44;31.50;71.70
1590;DHT22;788;48.720;9.158;2022-10-16T12:14:33;31.80;68.80
1590;DHT22;788;48.720;9.158;2022-10-16T12:17:02;31.90;69.10
1590;DHT22;788;48.720;9.158;2022-10-16T12:19:31;31.80;67.30
1590;DHT22;788;48.720;9.158;2022-10-16T12:22:01;31.90;67.60
1590;DHT22;788;48.720;9.158;2022-10-16T12:24:34;32.20;67.00
1590;DHT22;788;48.720;9.158;2022-10-16T12:27:03;32.80;64.30
1590;DHT22;788;48.720;9.158;2022-10-16T12:29:34;32.70;60.70
1590;DHT22;788;48.720;9.158;2022-10-16T12:32:02;32.30;61.70
1590;DHT22;788;48.720;9.158;2022-10-16T12:34:36;32.10;62.50
1590;DHT22;788;48.720;9.158;2022-10-16T12:37:20;32.00;61.40
1590;DHT22;788;48.720;9.158;2022-10-16T12:39:48;31.90;60.90
1590;DHT22;788;48.720;9.158;2022-10-16T12:42:30;32.10;61.70
1590;DHT22;788;48.720;9.158;2022-10-16T12:44:59;32.50;61.30
1590;DHT22;788;48.720;9.158;2022-10-16T12:47:37;32.80;61.80
1590;DHT22;788;48.720;9.158;2022-10-16T12:50:24;33.20;59.90
1590;DHT22;788;48.720;9.158;2022-10-16T12:52:52;33.40;57.60
1590;DHT22;788;48.720;9.158;2022-10-16T12:55:21;33.20;59.10
1590;DHT22;788;48.720;9.158;2022-10-16T13:00:50;32.10;59.80
1590;DHT22;788;48.720;9.158;2022-10-16T13:03:39;30.40;60.10
1590;DHT22;788;48.720;9.158;2022-10-16T13:06:19;29.80;64.40
1590;DHT22;788;48.720;9.158;2022-10-16T13:09:11;29.20;66.20
1590;DHT22;788;48.720;9.158;2022-10-16T13:11:57;28.80;68.60
1590;DHT22;788;48.720;9.158;2022-10-16T13:14:50;28.60;69.40
1590;DHT22;788;48.720;9.158;2022-10-16T13:17:25;28.50;73.10
1590;DHT22;788;48.720;9.158;2022-10-16T13:20:00;28.40;73.90
1590;DHT22;788;48.720;9.158;2022-10-16T13:22:33;28.30;70.40
1590;DHT22;788;48.720;9.158;2022-10-16T13:25:18;28.10;69.60
1590;DHT22;788;48.720;9.158;2022-10-16T13:27:54;28.10;71.90
1590;DHT22;788;48.720;9.158;2022-10-16T13:30:23;27.90;71.40
1590;DHT22;788;48.720;9.158;2022-10-16T13:32:55;27.70;74.80
1590;DHT22;788;48.720;9.158;2022-10-16T13:35:26;27.70;74.80
1590;DHT22;788;48.720;9.158;2022-10-16T13:38:03;27.70;76.10
1590;DHT22;788;48.720;9.158;2022-10-16T13:40:32;27.60;75.30
1590;DHT22;788;48.720;9.158;2022-10-16T13:43:00;27.50;75.10
1590;DHT22;788;48.720;9.158;2022-10-16T13:45:27;27.70;73.60
1590;DHT22;788;48.720;9.158;2022-10-16T13:48:02;27.40;73.90
1590;DHT22;788;48.720;9.158;2022-10-16T13:50:29;27.50;74.10
1590;DHT22;788;48.720;9.158;2022-10-16T13:53:03;27.40;73.30
1590;DHT22;788;48.720;9.158;2022-10-16T13:55:32;27.40;77.60
1590;DHT22;788;48.720;9.158;2022-10-16T13:58:07;27.60;76.30
1590;DHT22;788;48.720;9.158;2022-10-16T14:00:34;27.60;74.80
1590;DHT22;788;48.720;9.158;2022-10-16T14:03:03;27.40;74.40
1590;DHT22;788;48.720;9.158;2022-10-16T14:05:31;27.20;74.20
1590;DHT22;788;48.720;9.158;2022-10-16T14:07:58;26.90;75.00
1590;DHT22;788;48.720;9.158;2022-10-16T14:10:28;26.80;76.70
1590;DHT22;788;48.720;9.158;2022-10-16T14:13:00;26.80;78.10
1590;DHT22;788;48.720;9.158;2022-10-16T14:15:29;26.50;79.10
1590;DHT22;788;48.720;9.158;2022-10-16T14:17:58;26.50;80.40
1590;DHT22;788;48.720;9.158;2022-10-16T14:20:27;26.40;80.10
1590;DHT22;788;48.720;9.158;2022-10-16T14:22:59;26.30;80.50
1590;DHT22;788;48.720;9.158;2022-10-16T14:25:28;26.20;80.70
1590;DHT22;788;48.720;9.158;2022-10-16T14:28:01;26.20;81.10
1590;DHT22;788;48.720;9.158;2022-10-16T14:30:29;26.00;80.20
1590;DHT22;788;48.720;9.158;2022-10-16T14:32:58;26.00;82.10
1590;DHT22;788;48.720;9.158;2022-10-16T14:35:28;26.00;82.20
1590;DHT22;788;48.720;9.158;2022-10-16T14:37:57;25.90;82.10
1590;DHT22;788;48.720;9.158;2022-10-16T14:40:27;25.70;81.90
1590;DHT22;788;48.720;9.158;2022-10-16T14:42:54;25.30;81.60
1590;DHT22;788;48.720;9.158;2022-10-16T14:45:26;25.10;82.40
1590;DHT22;788;48.720;9.158;2022-10-16T14:47:55;25.00;83.10
1590;DHT22;788;48.720;9.158;2022-10-16T14:50:22;25.10;84.30
1590;DHT22;788;48.720;9.158;2022-10-16T14:52:49;25.10;84.50
1590;DHT22;788;48.720;9.158;2022-10-16T14:55:16;24.90;84.40
1590;DHT22;788;48.720;9.158;2022-10-16T14:57:44;24.80;84.90
1590;DHT22;788;48.720;9.158;2022-10-16T15:00:19;24.80;87.50
1590;DHT22;788;48.720;9.158;2022-10-16T15:02:49;24.80;86.60
1590;DHT22;788;48.720;9.158;2022-10-16T15:05:18;24.80;87.00
1590;DHT22;788;48.720;9.158;2022-10-16T15:07:46;24.70;87.40
1590;DHT22;788;48.720;9.158;2022-10-16T15:10:14;24.60;87.70
1590;DHT22;788;48.720;9.158;2022-10-16T15:12:41;24.80;89.80
1590;DHT22;788;48.720;9.158;2022-10-16T15:15:25;25.00;89.50
1590;DHT22;788;48.720;9.158;2022-10-16T15:17:56;25.00;89.10
1590;DHT22;788;48.720;9.158;2022-10-16T15:20:26;25.10;89.30
1590;DHT22;788;48.720;9.158;2022-10-16T15:22:53;25.10;89.40
1590;DHT22;788;48.720;9.158;2022-10-16T15:25:36;25.10;90.00
1590;DHT22;788;48.720;9.158;2022-10-16T15:28:05;25.10;90.00
1590;DHT22;788;48.720;9.158;2022-10-16T15:30:33;25.10;90.10
1590;DHT22;788;48.720;9.158;2022-10-16T15:33:03;25.10;90.20
1590;DHT22;788;48.720;9.158;2022-10-16T15:35:31;25.10;90.20
1590;DHT22;788;48.720;9.158;2022-10-16T15:37:58;25.00;90.20
1590;DHT22;788;48.720;9.158;2022-10-16T15:40:24;25.00;90.30
1590;DHT22;788;48.720;9.158;2022-10-16T15:42:51;24.90;90.40
1590;DHT22;788;48.720;9.158;2022-10-16T15:45:18;24.90;90.60
1590;DHT22;788;48.720;9.158;2022-10-16T15:47:45;24.80;90.80
1590;DHT22;788;48.720;9.158;2022-10-16T15:50:15;24.70;91.10
1590;DHT22;788;48.720;9.158;2022-10-16T15:52:42;24.50;91.40
1590;DHT22;788;48.720;9.158;2022-10-16T15:55:11;24.40;91.80
1590;DHT22;788;48.720;9.158;2022-10-16T15:57:45;24.30;92.50
1590;DHT22;788;48.720;9.158;2022-10-16T16:00:14;24.20;92.60
1590;DHT22;788;48.720;9.158;2022-10-16T16:02:42;24.10;92.90
1590;DHT22;788;48.720;9.158;2022-10-16T16:05:09;23.90;93.30
1590;DHT22;788;48.720;9.158;2022-10-16T16:07:38;23.80;93.60
1590;DHT22;788;48.720;9.158;2022-10-16T16:10:08;23.70;94.10
1590;DHT22;788;48.720;9.158;2022-10-16T16:12:34;23.60;94.90
1590;DHT22;788;48.720;9.158;2022-10-16T16:15:03;23.40;95.20
1590;DHT22;788;48.720;9.158;2022-10-16T16:17:30;23.30;95.50
1590;DHT22;788;48.720;9.158;2022-10-16T16:19:57;23.10;95.80
1590;DHT22;788;48.720;9.158;2022-10-16T16:22:24;22.90;96.20
1590;DHT22;788;48.720;9.158;2022-10-16T16:24:52;22.80;96.50
1590;DHT22;788;48.720;9.158;2022-10-16T16:27:18;22.60;97.00
1590;DHT22;788;48.720;9.158;2022-10-16T16:29:46;22.40;97.60
1590;DHT22;788;48.720;9.158;2022-10-16T16:32:13;22.30;98.40
1590;DHT22;788;48.720;9.158;2022-10-16T16:34:40;22.10;98.90
1590;DHT22;788;48.720;9.158;2022-10-16T16:37:06;22.00;99.20
1590;DHT22;788;48.720;9.158;2022-10-16T16:39:33;21.80;99.80
1590;DHT22;788;48.720;9.158;2022-10-16T16:42:01;21.70;99.90
1590;DHT22;788;48.720;9.158;2022-10-16T16:44:29;21.50;99.90
1590;DHT22;788;48.720;9.158;2022-10-16T16:46:56;21.40;99.90
1590;DHT22;788;48.720;9.158;2022-10-16T16:49:23;21.30;99.90
1590;DHT22;788;48.720;9.158;2022-10-16T16:51:49;21.10;99.90
1590;DHT22;788;48.720;9.158;2022-10-16T16:54:16;21.00;99.90